createdAt,value
2022-10-31T00:03:41.061Z,8.95
2022-10-31T00:08:34.578Z,8.80
2022-10-31T00:13:28.940Z,10.20
2022-10-31T00:18:22.381Z,9.98
2022-10-31T00:23:16.356Z,10.02
2022-10-31T00:28:11.413Z,9.13
2022-10-31T00:33:06.304Z,8.38
2022-10-31T00:38:00.242Z,8.80
2022-10-31T00:42:54.231Z,8.52
2022-10-31T00:47:47.155Z,8.85
2022-10-31T00:52:40.641Z,8.77
2022-10-31T00:57:34.711Z,8.88
2022-10-31T01:02:31.587Z,8.82
2022-10-31T01:12:21.283Z,9.98
2022-10-31T01:17:15.102Z,10.57
2022-10-31T01:22:09.309Z,10.82
2022-10-31T01:27:02.762Z,10.02
2022-10-31T01:32:00.494Z,10.45
2022-10-31T01:36:54.273Z,9.13
2022-10-31T01:41:52.871Z,9.32
2022-10-31T01:46:57.214Z,8.25
2022-10-31T01:51:54.399Z,7.13
2022-10-31T01:56:51.076Z,7.10
2022-10-31T02:01:44.895Z,7.00
2022-10-31T02:06:40.595Z,7.43
2022-10-31T02:11:35.147Z,6.78
2022-10-31T02:16:29.507Z,7.15
2022-10-31T02:21:28.397Z,7.18
2022-10-31T02:26:26.980Z,6.90
2022-10-31T02:31:33.758Z,7.18
2022-10-31T02:36:44.341Z,6.63
2022-10-31T02:41:52.909Z,7.32
2022-10-31T02:46:52.100Z,7.50
2022-10-31T02:51:45.831Z,7.70
2022-10-31T02:56:39.266Z,7.45
2022-10-31T03:02:34.361Z,7.70
2022-10-31T03:07:52.001Z,8.52
2022-10-31T03:12:54.141Z,8.75
2022-10-31T03:18:09.569Z,8.75
2022-10-31T03:23:04.326Z,8.10
2022-10-31T03:27:59.213Z,7.47
2022-10-31T03:32:56.260Z,8.20
2022-10-31T03:37:50.117Z,7.63
2022-10-31T03:42:45.400Z,8.43
2022-10-31T03:47:39.263Z,7.47
2022-10-31T03:52:32.063Z,8.85
2022-10-31T03:57:40.128Z,9.15
2022-10-31T04:02:36.703Z,8.85
2022-10-31T04:07:34.248Z,8.32
2022-10-31T04:12:28.558Z,8.10
2022-10-31T04:17:40.773Z,8.15
2022-10-31T04:22:34.679Z,8.30
2022-10-31T04:27:28.671Z,7.30
2022-10-31T04:32:22.975Z,7.57
2022-10-31T04:37:19.730Z,8.45
2022-10-31T04:42:14.945Z,8.05
2022-10-31T04:47:08.411Z,7.57
2022-10-31T04:52:03.325Z,9.13
2022-10-31T04:56:57.697Z,9.10
2022-10-31T05:01:51.466Z,9.43
2022-10-31T05:06:51.232Z,9.90
2022-10-31T05:11:46.147Z,9.88
2022-10-31T05:16:55.839Z,8.75
2022-10-31T05:22:08.176Z,9.23
2022-10-31T05:27:04.081Z,8.75
2022-10-31T05:31:58.181Z,8.27
2022-10-31T05:37:25.947Z,8.23
2022-10-31T05:47:15.086Z,8.32
2022-10-31T05:52:37.675Z,8.27
2022-10-31T05:57:40.537Z,7.45
2022-10-31T06:02:36.291Z,7.47
2022-10-31T06:07:41.155Z,8.10
2022-10-31T06:12:39.202Z,7.50
2022-10-31T06:17:50.543Z,7.88
2022-10-31T06:22:51.586Z,7.07
2022-10-31T06:27:45.513Z,7.85
2022-10-31T06:32:41.170Z,8.07
2022-10-31T06:37:35.769Z,7.68
2022-10-31T06:42:41.364Z,8.00
2022-10-31T06:47:50.799Z,8.55
2022-10-31T06:52:57.657Z,8.70
2022-10-31T06:58:02.013Z,7.28
2022-10-31T07:03:10.115Z,7.32
2022-10-31T07:08:05.853Z,7.05
2022-10-31T07:13:00.993Z,7.55
2022-10-31T07:18:01.426Z,7.25
2022-10-31T07:22:54.559Z,6.85
2022-10-31T07:27:50.145Z,8.38
2022-10-31T07:32:49.250Z,7.03
2022-10-31T07:37:45.062Z,7.65
2022-10-31T07:42:46.163Z,6.45
2022-10-31T07:48:00.646Z,8.50
2022-10-31T07:53:13.928Z,9.00
2022-10-31T07:58:33.370Z,8.18
2022-10-31T08:03:27.249Z,7.95
2022-10-31T08:08:39.090Z,8.30
2022-10-31T08:13:34.946Z,8.00
2022-10-31T08:18:28.613Z,8.80
2022-10-31T08:23:21.975Z,9.45
2022-10-31T08:33:15.054Z,10.65
2022-10-31T08:38:27.597Z,10.90
2022-10-31T08:43:21.954Z,11.98
2022-10-31T08:48:19.335Z,9.77
2022-10-31T08:53:36.414Z,7.95
2022-10-31T08:58:55.140Z,7.88
2022-10-31T09:03:58.111Z,7.95
2022-10-31T09:08:53.533Z,8.82
2022-10-31T09:13:51.883Z,11.23
2022-10-31T09:19:24.004Z,14.68
2022-10-31T09:24:17.603Z,14.27
2022-10-31T09:29:11.262Z,8.98
2022-10-31T09:34:06.547Z,8.48
2022-10-31T09:39:02.240Z,8.90
2022-10-31T09:44:14.177Z,13.80
2022-10-31T09:49:56.743Z,11.32
2022-10-31T09:55:02.274Z,11.85
2022-10-31T09:59:56.262Z,12.43
2022-10-31T10:04:56.252Z,14.25
2022-10-31T10:09:50.145Z,10.52
2022-10-31T10:15:32.542Z,16.00
2022-10-31T10:20:53.693Z,12.63
2022-10-31T10:25:48.791Z,12.77
2022-10-31T10:31:05.792Z,12.25
2022-10-31T10:36:07.618Z,13.48
2022-10-31T10:41:04.170Z,12.98
2022-10-31T10:46:26.210Z,16.23
2022-10-31T10:51:38.813Z,14.32
2022-10-31T10:56:46.789Z,14.45
2022-10-31T11:01:42.431Z,14.68
2022-10-31T11:06:36.520Z,14.35
2022-10-31T11:11:32.213Z,15.48
2022-10-31T11:16:28.124Z,15.32
2022-10-31T11:21:34.954Z,14.32
2022-10-31T11:26:28.954Z,16.10
2022-10-31T11:31:22.817Z,15.90
2022-10-31T11:36:31.083Z,17.23
2022-10-31T11:41:35.725Z,17.80
2022-10-31T11:46:44.516Z,17.33
2022-10-31T11:51:38.285Z,17.58
2022-10-31T11:56:50.308Z,17.70
2022-10-31T12:01:53.485Z,17.25
2022-10-31T12:06:48.063Z,17.10
2022-10-31T12:12:04.509Z,16.80
2022-10-31T12:17:15.649Z,17.60
2022-10-31T12:22:35.344Z,17.50
2022-10-31T12:27:58.337Z,17.33
2022-10-31T12:33:12.188Z,17.40
2022-10-31T12:38:24.102Z,15.95
2022-10-31T12:43:56.628Z,16.55
2022-10-31T12:49:13.566Z,17.65
2022-10-31T12:54:30.733Z,16.35
2022-10-31T13:00:08.484Z,18.77
2022-10-31T13:05:07.683Z,17.38
2022-10-31T13:10:29.132Z,18.13
2022-10-31T13:15:23.374Z,18.50
2022-10-31T13:20:21.540Z,17.65
2022-10-31T13:25:18.176Z,17.23
2022-10-31T13:30:55.995Z,17.40
2022-10-31T13:35:52.860Z,17.35
2022-10-31T13:40:55.315Z,17.55
2022-10-31T13:45:52.738Z,16.33
2022-10-31T13:51:25.443Z,16.70
2022-10-31T13:56:27.044Z,14.15
2022-10-31T14:01:24.609Z,17.30
2022-10-31T14:06:18.819Z,17.35
2022-10-31T14:11:34.417Z,17.70
2022-10-31T14:16:55.753Z,17.50
2022-10-31T14:21:50.291Z,16.20
2022-10-31T14:26:56.502Z,17.42
2022-10-31T14:31:58.717Z,17.40
2022-10-31T14:37:10.164Z,16.63
2022-10-31T14:42:16.548Z,17.25
2022-10-31T14:47:26.256Z,16.33
2022-10-31T14:52:20.234Z,17.73
2022-10-31T14:57:21.121Z,17.70
2022-10-31T15:02:43.953Z,15.98
2022-10-31T15:07:38.638Z,18.08
2022-10-31T15:12:34.976Z,17.35
2022-10-31T15:17:28.471Z,17.63
2022-10-31T15:22:25.293Z,18.30
2022-10-31T15:27:19.585Z,18.77
2022-10-31T15:32:24.740Z,20.80
2022-10-31T15:37:20.575Z,21.83
2022-10-31T15:42:30.529Z,24.15
2022-10-31T15:47:26.208Z,21.98
2022-10-31T15:52:48.001Z,22.27
2022-10-31T15:57:45.955Z,21.23
2022-10-31T16:02:39.779Z,20.35
2022-10-31T16:07:34.466Z,19.35
2022-10-31T16:12:37.356Z,19.65
2022-10-31T16:17:32.065Z,18.92
2022-10-31T16:22:34.814Z,17.52
2022-10-31T16:27:32.035Z,18.13
2022-10-31T16:32:37.280Z,19.23
2022-10-31T16:37:32.001Z,20.15
2022-10-31T16:42:26.349Z,19.48
2022-10-31T16:47:21.237Z,20.45
2022-10-31T16:52:16.230Z,20.15
2022-10-31T16:57:15.585Z,19.30
2022-10-31T17:02:16.555Z,20.88
2022-10-31T17:07:10.458Z,19.17
2022-10-31T17:12:03.678Z,18.88
2022-10-31T17:17:00.405Z,20.85
2022-10-31T17:21:54.406Z,19.40
2022-10-31T17:26:49.040Z,20.48
2022-10-31T17:31:44.607Z,18.92
2022-10-31T17:36:38.080Z,21.25
2022-10-31T17:41:31.391Z,23.13
2022-10-31T17:46:26.156Z,23.10
2022-10-31T17:51:20.320Z,22.10
2022-10-31T17:56:13.563Z,22.33
2022-10-31T18:01:11.399Z,21.80
2022-10-31T18:06:05.730Z,20.30
2022-10-31T18:11:02.247Z,23.73
2022-10-31T18:15:55.646Z,23.27
2022-10-31T18:20:50.724Z,23.50
2022-10-31T18:25:44.801Z,22.52
2022-10-31T18:30:41.551Z,32.92
2022-10-31T18:35:38.656Z,24.25
2022-10-31T18:40:33.507Z,25.73
2022-10-31T18:45:46.498Z,24.85
2022-10-31T18:50:43.590Z,26.08
2022-10-31T18:55:43.965Z,24.95
2022-10-31T19:00:41.537Z,29.30
2022-10-31T19:05:35.588Z,29.88
2022-10-31T19:10:28.043Z,29.63
2022-10-31T19:15:21.046Z,30.23
2022-10-31T19:20:14.678Z,29.85
2022-10-31T19:25:10.997Z,28.95
2022-10-31T19:30:06.020Z,26.23
2022-10-31T19:35:00.266Z,25.15
2022-10-31T19:39:55.648Z,27.92
2022-10-31T19:44:48.969Z,29.33
2022-10-31T19:49:46.304Z,28.45
2022-10-31T19:54:40.542Z,29.73
2022-10-31T19:59:39.595Z,25.40
2022-10-31T20:04:33.893Z,28.17
2022-10-31T20:09:28.234Z,26.80
2022-10-31T20:14:22.470Z,27.52
2022-10-31T20:19:15.920Z,27.95
2022-10-31T20:24:11.104Z,28.70
2022-10-31T20:29:16.622Z,28.25
2022-10-31T20:34:10.946Z,28.20
2022-10-31T20:39:09.641Z,29.20
2022-10-31T20:44:03.638Z,31.38
2022-10-31T20:48:57.393Z,33.28
2022-10-31T20:53:52.531Z,29.30
2022-10-31T20:58:46.341Z,30.98
2022-10-31T21:03:41.314Z,30.40
2022-10-31T21:08:38.125Z,29.50
2022-10-31T21:13:32.532Z,26.75
2022-10-31T21:18:26.846Z,27.77
2022-10-31T21:23:20.610Z,27.40
2022-10-31T21:28:14.849Z,27.52
2022-10-31T21:33:08.103Z,25.42
2022-10-31T21:38:01.994Z,24.15
2022-10-31T21:42:56.597Z,23.10
2022-10-31T21:47:51.003Z,20.55
2022-10-31T21:52:44.961Z,18.13
2022-10-31T21:57:39.019Z,15.80
2022-10-31T22:02:32.687Z,16.98
2022-10-31T22:07:27.304Z,14.30
2022-10-31T22:12:21.703Z,13.20
2022-10-31T22:17:15.605Z,14.50
2022-10-31T22:22:10.147Z,14.52
2022-10-31T22:27:04.711Z,14.52
2022-10-31T22:32:00.657Z,15.13
2022-10-31T22:36:56.958Z,15.85
2022-10-31T22:41:50.913Z,13.98
2022-10-31T22:46:44.993Z,12.25
2022-10-31T22:51:41.007Z,13.25
2022-10-31T22:56:35.277Z,11.18
2022-10-31T23:01:30.878Z,11.82
2022-10-31T23:06:28.477Z,11.55
2022-10-31T23:11:33.288Z,9.82
2022-10-31T23:16:27.966Z,10.25
2022-10-31T23:21:44.255Z,9.18
2022-10-31T23:26:57.395Z,8.20
2022-10-31T23:31:51.784Z,8.20
2022-10-31T23:36:45.202Z,7.63
2022-10-31T23:41:39.390Z,7.55
2022-10-31T23:46:33.836Z,9.32
2022-10-31T23:51:28.433Z,12.77
2022-10-31T23:56:22.770Z,11.68
